Time;durP1;ratioP1;P1;durP2;ratioP2;P2;SDS_P1;SDS_P2;PMS_P1;PMS_P2;Temp;Humidity;BMP_temperature;BMP_pressure;BME280_temperature;BME280_humidity;BME280_pressure;Samples;Min_cycle;Max_cycle;Signal;HPM_P1;HPM_P2
2021/04/26 00:01:49;;;;;;;13.63;8.50;;;13.30;69.90;;;;;;5061958;28;20017;-80
2021/04/26 00:04:16;;;;;;;14.32;8.10;;;13.30;70.00;;;;;;5059068;28;20025;-80
2021/04/26 00:06:43;;;;;;;12.02;7.90;;;13.20;69.40;;;;;;5061141;28;20084;-81
2021/04/26 00:09:09;;;;;;;12.82;7.40;;;13.20;68.90;;;;;;5060946;28;20024;-79
2021/04/26 00:11:35;;;;;;;12.00;7.82;;;13.10;69.40;;;;;;5063090;28;20024;-79
2021/04/26 00:14:07;;;;;;;11.65;7.60;;;13.20;68.60;;;;;;5061920;28;20057;-77
2021/04/26 00:16:32;;;;;;;10.93;7.40;;;13.20;68.90;;;;;;5058390;28;20079;-76
2021/04/26 00:18:59;;;;;;;10.65;7.20;;;13.20;68.70;;;;;;5061277;28;20025;-79
2021/04/26 00:21:25;;;;;;;13.10;7.75;;;13.10;67.20;;;;;;5060514;28;20100;-73
2021/04/26 00:23:51;;;;;;;10.85;7.32;;;13.10;68.40;;;;;;5059337;28;20056;-73
2021/04/26 00:26:17;;;;;;;11.68;6.82;;;13.10;68.10;;;;;;5060955;28;20027;-73
2021/04/26 00:28:43;;;;;;;10.52;7.03;;;13.00;67.00;;;;;;5058729;28;20074;-80
2021/04/26 00:31:09;;;;;;;14.63;7.05;;;13.00;66.10;;;;;;5060502;28;20375;-77
2021/04/26 00:33:35;;;;;;;11.35;6.88;;;13.00;67.30;;;;;;5061978;28;20045;-75
2021/04/26 00:36:01;;;;;;;39.00;21.00;;;12.90;67.00;;;;;;5062546;28;20087;-78
2021/04/26 00:38:27;;;;;;;30.48;15.00;;;12.80;65.50;;;;;;5060102;28;20025;-76
2021/04/26 00:40:52;;;;;;;17.63;9.90;;;12.80;67.00;;;;;;5060399;28;20028;-73
2021/04/26 00:43:19;;;;;;;21.42;12.45;;;12.60;66.70;;;;;;5059089;28;20110;-81
2021/04/26 00:45:45;;;;;;;24.00;16.27;;;12.60;67.70;;;;;;5059972;28;20021;-73
2021/04/26 00:48:11;;;;;;;22.73;15.95;;;12.60;67.90;;;;;;5061077;28;20425;-74
2021/04/26 00:50:39;;;;;;;22.13;14.93;;;12.50;69.50;;;;;;5061676;28;20059;-77
2021/04/26 00:53:06;;;;;;;20.33;13.45;;;12.50;69.00;;;;;;5061597;28;20017;-74
2021/04/26 00:55:34;;;;;;;19.00;12.05;;;12.40;69.10;;;;;;5062019;28;20048;-74
2021/04/26 00:58:01;;;;;;;17.65;11.15;;;12.40;71.20;;;;;;5061732;28;20021;-81
2021/04/26 01:00:29;;;;;;;18.17;11.80;;;12.30;71.10;;;;;;5059607;28;20408;-73
2021/04/26 01:02:55;;;;;;;20.13;13.57;;;12.30;72.10;;;;;;5058328;28;20021;-81
2021/04/26 01:05:24;;;;;;;32.03;20.35;;;12.20;72.30;;;;;;5061892;28;20025;-80
2021/04/26 01:07:51;;;;;;;27.92;16.48;;;12.20;72.70;;;;;;5060858;28;20029;-73
2021/04/26 01:10:20;;;;;;;25.55;16.48;;;12.00;72.40;;;;;;5061231;28;20066;-73
2021/04/26 01:13:07;;;;;;;21.67;15.30;;;12.00;73.90;;;;;;5061214;28;20027;-78
2021/04/26 01:15:57;;;;;;;20.08;12.82;;;11.90;72.60;;;;;;5063446;28;20166;-78
2021/04/26 01:19:04;;;;;;;23.15;13.18;;;11.90;73.40;;;;;;5061511;28;20157;-77
2021/04/26 01:22:00;;;;;;;17.45;11.43;;;11.70;73.80;;;;;;5059775;28;20051;-73
2021/04/26 01:25:00;;;;;;;20.98;15.30;;;11.60;76.20;;;;;;5060098;28;20035;-73
2021/04/26 01:28:02;;;;;;;18.48;14.38;;;11.40;77.70;;;;;;5060742;28;20445;-78
2021/04/26 01:30:51;;;;;;;27.08;23.70;;;11.30;80.10;;;;;;5038161;28;20479;-73
2021/04/26 01:33:20;;;;;;;18.15;11.77;;;11.20;81.10;;;;;;5038691;28;20075;-77
2021/04/26 01:35:47;;;;;;;19.98;11.27;;;11.20;82.10;;;;;;5037689;28;20044;-73
2021/04/26 01:38:25;;;;;;;18.50;11.73;;;11.20;82.70;;;;;;5022965;28;20049;-80
2021/04/26 01:40:53;;;;;;;18.77;13.38;;;11.30;82.40;;;;;;5038850;28;20072;-81
2021/04/26 01:43:22;;;;;;;27.85;17.88;;;11.40;84.80;;;;;;5037251;28;20089;-81
2021/04/26 01:45:53;;;;;;;20.50;13.98;;;11.20;84.90;;;;;;5037411;28;20500;-73
2021/04/26 01:48:20;;;;;;;17.65;13.23;;;11.10;86.80;;;;;;5038889;28;20539;-80
2021/04/26 01:50:48;;;;;;;19.05;13.48;;;10.90;87.10;;;;;;5020970;28;20071;-73
2021/04/26 01:53:17;;;;;;;26.10;16.23;;;11.00;85.70;;;;;;5039472;28;20091;-73
2021/04/26 01:55:44;;;;;;;19.10;14.07;;;11.00;85.70;;;;;;5037363;28;20029;-80
2021/04/26 01:58:10;;;;;;;22.40;14.18;;;11.10;84.70;;;;;;5023041;28;20010;-79
2021/04/26 02:00:36;;;;;;;23.83;15.75;;;10.90;86.30;;;;;;5036489;28;20085;-79
2021/04/26 02:03:03;;;;;;;23.98;13.70;;;10.80;88.00;;;;;;5038892;28;20075;-73
2021/04/26 02:05:31;;;;;;;19.27;14.25;;;10.80;88.60;;;;;;5045804;28;20037;-80
2021/04/26 02:07:57;;;;;;;21.83;14.88;;;10.90;88.90;;;;;;5060545;28;20049;-77
2021/04/26 02:10:28;;;;;;;21.95;12.95;;;10.80;89.00;;;;;;5060328;28;20104;-73
2021/04/26 02:12:57;;;;;;;21.20;12.77;;;10.70;90.00;;;;;;5060814;28;20032;-78
2021/04/26 02:15:28;;;;;;;20.45;13.02;;;10.60;90.50;;;;;;5060621;28;20029;-73
2021/04/26 02:17:54;;;;;;;22.23;13.98;;;10.50;90.90;;;;;;5060621;28;20107;-81
2021/04/26 02:20:20;;;;;;;18.77;12.50;;;10.50;91.20;;;;;;5060890;28;20024;-75
2021/04/26 02:22:50;;;;;;;19.80;12.20;;;10.60;91.20;;;;;;5061208;28;20379;-73
2021/04/26 02:25:18;;;;;;;19.92;12.15;;;10.60;91.40;;;;;;5057170;28;20450;-82
2021/04/26 02:27:44;;;;;;;17.30;12.27;;;10.50;92.10;;;;;;5057159;28;20398;-82
2021/04/26 02:30:11;;;;;;;18.60;11.88;;;10.10;93.30;;;;;;5059470;28;20023;-77
2021/04/26 02:32:54;;;;;;;18.65;12.05;;;10.10;93.50;;;;;;5060418;28;20021;-80
2021/04/26 02:35:37;;;;;;;18.80;12.00;;;10.00;94.10;;;;;;5062061;28;20519;-73
2021/04/26 02:38:06;;;;;;;18.73;12.85;;;9.90;94.50;;;;;;5060175;28;20032;-74
2021/04/26 02:40:38;;;;;;;22.88;13.95;;;9.90;94.60;;;;;;5061553;28;20479;-78
2021/04/26 02:43:05;;;;;;;18.73;13.73;;;9.90;94.50;;;;;;5060207;28;20104;-75
2021/04/26 02:45:34;;;;;;;21.52;14.13;;;9.80;94.80;;;;;;5059223;28;20036;-76
2021/04/26 02:48:01;;;;;;;21.08;14.13;;;9.70;95.10;;;;;;5060853;28;20017;-79
2021/04/26 02:50:28;;;;;;;24.13;13.85;;;9.80;94.90;;;;;;5061757;28;20021;-75
2021/04/26 02:52:55;;;;;;;23.00;14.75;;;9.80;94.70;;;;;;5060856;28;20017;-79
2021/04/26 02:55:23;;;;;;;19.08;13.55;;;9.80;95.00;;;;;;5062744;28;20028;-76
2021/04/26 02:57:52;;;;;;;19.90;13.32;;;9.90;95.10;;;;;;5058545;28;20108;-77
2021/04/26 03:00:19;;;;;;;21.92;13.50;;;10.00;94.80;;;;;;5060091;28;20410;-74
2021/04/26 03:02:47;;;;;;;19.65;12.70;;;9.90;94.70;;;;;;5056369;28;20033;-79
2021/04/26 03:05:14;;;;;;;19.55;13.20;;;9.90;94.70;;;;;;5057925;28;20029;-73
2021/04/26 03:07:42;;;;;;;19.33;13.07;;;10.00;94.60;;;;;;5059068;28;20016;-75
2021/04/26 03:10:12;;;;;;;18.77;12.70;;;10.10;94.40;;;;;;5058146;28;20032;-77
2021/04/26 03:12:42;;;;;;;23.80;13.10;;;10.10;94.20;;;;;;5061283;28;20386;-73
2021/04/26 03:15:15;;;;;;;19.98;13.30;;;10.20;94.00;;;;;;5056212;28;20025;-75
2021/04/26 03:17:43;;;;;;;20.60;13.20;;;10.30;93.80;;;;;;5058199;28;20425;-82
2021/04/26 03:20:12;;;;;;;22.70;13.32;;;10.40;93.60;;;;;;5058216;28;20056;-81
2021/04/26 03:22:40;;;;;;;20.40;13.45;;;10.40;93.70;;;;;;5060628;28;20053;-73
2021/04/26 03:25:07;;;;;;;24.33;16.15;;;10.50;93.40;;;;;;5061663;28;20483;-80
2021/04/26 03:27:34;;;;;;;28.42;19.40;;;10.50;93.70;;;;;;5061972;28;20060;-80
2021/04/26 03:30:01;;;;;;;23.08;17.45;;;10.50;93.20;;;;;;5062521;28;20017;-78
2021/04/26 03:32:28;;;;;;;23.10;17.08;;;10.70;93.20;;;;;;5060896;28;20021;-75
2021/04/26 03:34:54;;;;;;;26.63;17.30;;;10.70;93.70;;;;;;5062950;28;20383;-76
2021/04/26 03:37:21;;;;;;;25.63;18.63;;;10.70;93.60;;;;;;5063213;28;20021;-81
2021/04/26 03:39:48;;;;;;;28.58;18.08;;;10.80;93.70;;;;;;5060383;28;20115;-74
2021/04/26 03:42:18;;;;;;;34.17;22.80;;;10.70;94.10;;;;;;5062576;28;20049;-73
2021/04/26 03:44:45;;;;;;;31.33;21.85;;;10.80;93.50;;;;;;5060851;28;20104;-81
2021/04/26 03:47:12;;;;;;;27.23;19.85;;;10.90;93.50;;;;;;5062270;28;20040;-80
2021/04/26 03:49:38;;;;;;;28.65;17.85;;;10.90;93.40;;;;;;5063359;28;20061;-73
2021/04/26 03:52:05;;;;;;;22.33;14.75;;;11.10;92.50;;;;;;5061815;28;20031;-74
2021/04/26 03:54:32;;;;;;;25.05;15.27;;;11.10;92.90;;;;;;5062860;28;20025;-79
2021/04/26 03:56:58;;;;;;;25.13;15.80;;;11.10;93.00;;;;;;5061936;28;20017;-81
2021/04/26 03:59:23;;;;;;;26.98;18.00;;;11.00;93.20;;;;;;5062198;28;20414;-78
2021/04/26 04:01:50;;;;;;;26.30;18.20;;;10.70;93.50;;;;;;5062254;28;20021;-80
2021/04/26 04:04:16;;;;;;;24.63;14.85;;;10.70;93.70;;;;;;5064503;28;20021;-77
2021/04/26 04:06:42;;;;;;;33.92;15.10;;;10.50;93.90;;;;;;5063598;28;20108;-75
2021/04/26 04:09:09;;;;;;;26.90;17.35;;;10.50;94.20;;;;;;5064024;28;20021;-77
2021/04/26 04:11:36;;;;;;;33.17;18.58;;;10.60;94.40;;;;;;5062889;28;20081;-81
2021/04/26 04:14:03;;;;;;;39.47;21.70;;;10.60;94.20;;;;;;5063688;28;20041;-74
2021/04/26 04:16:30;;;;;;;36.80;22.08;;;10.80;93.50;;;;;;5061123;28;20047;-76
2021/04/26 04:18:57;;;;;;;32.58;21.77;;;10.80;93.90;;;;;;5060016;28;20021;-81
2021/04/26 04:21:23;;;;;;;33.53;22.23;;;10.90;94.00;;;;;;5063624;28;20025;-77
2021/04/26 04:23:49;;;;;;;28.27;19.40;;;10.90;93.20;;;;;;5063984;28;20024;-73
2021/04/26 04:26:15;;;;;;;32.22;21.45;;;10.90;93.00;;;;;;5062260;28;20029;-80
2021/04/26 04:28:41;;;;;;;30.63;20.75;;;10.90;93.60;;;;;;5062006;28;20060;-74
2021/04/26 04:31:07;;;;;;;111.82;54.38;;;10.90;93.70;;;;;;5062247;28;20037;-75
2021/04/26 04:33:33;;;;;;;165.65;92.38;;;10.80;93.50;;;;;;5059728;28;20013;-76
2021/04/26 04:36:00;;;;;;;148.50;99.10;;;10.70;94.00;;;;;;5059891;28;20065;-81
2021/04/26 04:38:26;;;;;;;152.93;92.45;;;10.80;92.90;;;;;;5061238;28;20070;-81
2021/04/26 04:40:53;;;;;;;99.25;57.55;;;11.00;92.50;;;;;;5059916;28;20132;-81
2021/04/26 04:43:20;;;;;;;77.03;47.40;;;11.20;91.90;;;;;;5060778;28;20074;-78
2021/04/26 04:45:46;;;;;;;52.55;34.25;;;11.30;91.50;;;;;;5062704;28;20029;-78
2021/04/26 04:48:12;;;;;;;40.65;28.45;;;11.40;91.90;;;;;;5061505;28;20017;-81
2021/04/26 04:50:38;;;;;;;43.17;27.60;;;11.40;92.50;;;;;;5060342;28;20039;-80
2021/04/26 04:53:04;;;;;;;20.73;15.15;;;11.50;91.70;;;;;;5056843;28;20017;-74
2021/04/26 04:55:30;;;;;;;21.02;13.45;;;11.60;92.50;;;;;;5057686;28;20475;-77
2021/04/26 04:57:56;;;;;;;18.23;11.98;;;11.70;92.80;;;;;;5061161;28;20017;-80
2021/04/26 05:00:22;;;;;;;19.63;11.73;;;11.70;92.40;;;;;;5059085;28;20032;-81
2021/04/26 05:02:48;;;;;;;20.08;12.57;;;11.70;93.20;;;;;;5058716;28;20033;-73
2021/04/26 05:05:14;;;;;;;17.10;11.88;;;11.70;92.80;;;;;;5057287;28;20036;-74
2021/04/26 05:07:40;;;;;;;17.73;11.98;;;11.80;93.50;;;;;;5058780;28;20021;-81
2021/04/26 05:10:07;;;;;;;18.95;12.07;;;11.80;92.50;;;;;;5059427;28;20096;-75
2021/04/26 05:12:34;;;;;;;21.42;12.00;;;11.80;93.40;;;;;;5057818;28;20021;-74
2021/04/26 05:15:00;;;;;;;17.67;13.00;;;11.80;92.90;;;;;;5057480;28;20064;-81
2021/04/26 05:17:26;;;;;;;17.88;12.90;;;11.80;93.80;;;;;;5057887;28;20036;-81
2021/04/26 05:19:53;;;;;;;19.48;13.05;;;11.90;93.30;;;;;;5058287;28;20025;-81
2021/04/26 05:22:19;;;;;;;17.20;12.25;;;12.00;93.70;;;;;;5058853;28;20014;-81
2021/04/26 05:24:45;;;;;;;18.10;12.60;;;11.90;92.90;;;;;;5058245;28;20032;-74
2021/04/26 05:27:10;;;;;;;16.95;12.73;;;12.00;93.30;;;;;;5058281;28;20379;-78
2021/04/26 05:29:36;;;;;;;14.75;11.48;;;12.00;93.20;;;;;;5058762;28;20071;-81
2021/04/26 05:32:02;;;;;;;21.70;12.63;;;12.10;92.60;;;;;;5058261;28;20021;-82
2021/04/26 05:34:29;;;;;;;18.65;12.35;;;12.10;92.60;;;;;;5061157;28;20077;-73
2021/04/26 05:36:55;;;;;;;16.48;12.02;;;12.10;92.40;;;;;;5058888;28;20024;-80
2021/04/26 05:39:21;;;;;;;17.50;12.55;;;12.20;92.60;;;;;;5059316;28;20507;-73
2021/04/26 05:41:47;;;;;;;18.65;12.60;;;12.20;92.50;;;;;;5059896;28;20050;-74
2021/04/26 05:44:13;;;;;;;16.63;12.10;;;12.30;91.90;;;;;;5058316;28;20025;-77
2021/04/26 05:46:39;;;;;;;17.33;11.63;;;12.30;92.00;;;;;;5058802;28;20363;-81
2021/04/26 05:49:05;;;;;;;16.38;12.43;;;12.30;91.40;;;;;;5057682;28;20025;-82
2021/04/26 05:51:31;;;;;;;16.25;12.40;;;12.30;92.10;;;;;;5057534;28;20440;-80
2021/04/26 05:53:58;;;;;;;14.73;12.63;;;12.50;91.80;;;;;;5056227;28;20032;-73
2021/04/26 05:56:24;;;;;;;17.35;12.73;;;12.60;90.90;;;;;;5055585;28;20059;-74
2021/04/26 05:58:50;;;;;;;15.02;12.10;;;12.70;91.00;;;;;;5059883;28;20024;-73
2021/04/26 06:01:17;;;;;;;13.85;10.90;;;12.80;90.50;;;;;;5066216;28;20581;-73
2021/04/26 06:03:43;;;;;;;15.20;11.57;;;12.80;90.50;;;;;;5072106;28;20016;-77
2021/04/26 06:06:09;;;;;;;14.82;11.38;;;12.80;90.20;;;;;;5079198;28;20023;-73
2021/04/26 06:08:34;;;;;;;15.32;10.80;;;12.90;89.70;;;;;;5081352;28;20080;-75
2021/04/26 06:11:00;;;;;;;20.40;11.65;;;13.00;90.10;;;;;;5079728;28;20375;-74
2021/04/26 06:13:27;;;;;;;15.73;10.45;;;13.10;90.10;;;;;;5079743;28;20502;-80
2021/04/26 06:15:53;;;;;;;14.43;10.13;;;13.20;88.00;;;;;;5079294;28;20055;-73
2021/04/26 06:18:21;;;;;;;12.98;9.88;;;13.20;87.00;;;;;;5079159;28;20025;-78
2021/04/26 06:20:49;;;;;;;12.75;10.27;;;13.30;87.60;;;;;;5075311;28;20024;-75
2021/04/26 06:23:16;;;;;;;14.57;10.25;;;13.40;86.60;;;;;;5076761;28;20024;-76
2021/04/26 06:25:43;;;;;;;16.65;10.25;;;13.40;85.70;;;;;;5079912;28;20051;-73
2021/04/26 06:28:10;;;;;;;16.13;10.65;;;13.60;84.40;;;;;;5079637;28;20044;-74
2021/04/26 06:30:38;;;;;;;14.30;10.15;;;13.60;84.10;;;;;;5074636;28;20073;-73
2021/04/26 06:33:04;;;;;;;15.50;10.98;;;13.70;83.10;;;;;;5073990;28;20021;-79
2021/04/26 06:35:30;;;;;;;16.40;11.10;;;13.80;83.20;;;;;;5075084;28;20025;-75
2021/04/26 06:37:57;;;;;;;19.13;12.48;;;13.90;82.30;;;;;;5075262;28;20032;-72
2021/04/26 06:40:24;;;;;;;20.27;14.82;;;14.00;82.10;;;;;;5077514;28;20048;-74
2021/04/26 06:42:50;;;;;;;16.25;11.43;;;14.10;83.30;;;;;;5077261;28;20407;-78
2021/04/26 06:45:23;;;;;;;24.92;18.02;;;14.30;81.20;;;;;;5079080;28;20048;-78
2021/04/26 06:47:50;;;;;;;13.02;10.40;;;14.40;80.60;;;;;;5078378;28;20348;-73
2021/04/26 06:50:17;;;;;;;13.45;9.93;;;14.40;79.30;;;;;;5078448;28;20137;-79
2021/04/26 06:52:44;;;;;;;14.40;10.30;;;14.50;78.50;;;;;;5073195;28;20479;-74
2021/04/26 06:55:10;;;;;;;17.02;11.35;;;14.70;79.90;;;;;;5075733;28;20020;-77
2021/04/26 06:57:36;;;;;;;12.82;10.57;;;14.90;78.90;;;;;;5080913;28;20386;-80
2021/04/26 07:00:04;;;;;;;17.73;12.07;;;14.90;79.00;;;;;;5079062;28;20039;-72
2021/04/26 07:02:30;;;;;;;15.13;11.50;;;14.90;77.40;;;;;;5081755;28;20024;-76
2021/04/26 07:04:56;;;;;;;18.85;13.02;;;15.00;76.90;;;;;;5078345;28;20115;-75
2021/04/26 07:07:24;;;;;;;16.00;10.98;;;15.10;76.10;;;;;;5077513;28;20024;-75
2021/04/26 07:09:50;;;;;;;15.57;10.82;;;15.10;77.10;;;;;;5075985;28;20347;-75
2021/04/26 07:12:16;;;;;;;14.32;9.80;;;15.40;76.20;;;;;;5079854;28;20005;-80
2021/04/26 07:14:42;;;;;;;19.38;11.00;;;15.40;74.70;;;;;;5075570;28;20112;-74
2021/04/26 07:17:08;;;;;;;16.08;10.23;;;15.10;74.20;;;;;;5077324;28;20150;-73
2021/04/26 07:19:34;;;;;;;13.23;10.27;;;15.00;74.10;;;;;;5079965;28;20024;-76
2021/04/26 07:22:00;;;;;;;14.20;10.27;;;15.10;72.70;;;;;;5077737;28;20028;-75
2021/04/26 07:24:26;;;;;;;12.75;8.98;;;15.40;74.40;;;;;;5084183;28;20111;-76
2021/04/26 07:26:51;;;;;;;12.68;9.20;;;15.70;71.50;;;;;;5083952;28;20033;-74
2021/04/26 07:29:17;;;;;;;11.48;9.20;;;15.40;69.20;;;;;;5078671;28;20055;-80
2021/04/26 07:31:44;;;;;;;12.82;9.25;;;14.90;71.40;;;;;;5081171;28;20082;-80
2021/04/26 07:34:10;;;;;;;14.45;9.63;;;15.10;73.00;;;;;;5080523;28;20077;-74
2021/04/26 07:36:35;;;;;;;12.45;9.45;;;15.30;72.00;;;;;;5078860;28;20020;-81
2021/04/26 07:39:03;;;;;;;11.57;9.07;;;15.50;70.50;;;;;;5071054;28;20025;-74
2021/04/26 07:41:29;;;;;;;12.20;9.23;;;15.70;68.40;;;;;;5058386;28;20017;-73
2021/04/26 07:43:55;;;;;;;12.38;9.10;;;15.80;70.30;;;;;;5054468;28;20771;-73
2021/04/26 07:46:21;;;;;;;10.98;8.43;;;16.10;68.80;;;;;;5054783;28;20474;-83
2021/04/26 07:48:47;;;;;;;11.68;9.02;;;16.30;67.20;;;;;;5065865;28;20025;-82
2021/04/26 07:51:12;;;;;;;38.75;11.30;;;16.10;63.50;;;;;;5064712;28;20020;-75
2021/04/26 07:53:39;;;;;;;12.13;8.95;;;16.40;68.30;;;;;;5064683;28;20337;-74
2021/04/26 07:56:05;;;;;;;11.75;8.65;;;;;;;;;;5062450;28;20022;-72
2021/04/26 07:58:31;;;;;;;10.90;8.63;;;17.00;64.80;;;;;;5059602;28;20021;-81
2021/04/26 08:00:57;;;;;;;14.55;8.98;;;17.10;63.50;;;;;;5062549;28;20024;-74
2021/04/26 08:03:24;;;;;;;12.18;8.57;;;17.40;64.50;;;;;;5064725;28;20104;-81
2021/04/26 08:05:51;;;;;;;13.70;9.20;;;;;;;;;;5062437;28;20102;-73
2021/04/26 08:08:17;;;;;;;17.48;10.63;;;17.80;60.70;;;;;;5066419;28;20107;-75
2021/04/26 08:10:43;;;;;;;10.07;8.60;;;18.00;62.80;;;;;;5068062;28;20469;-74
2021/04/26 08:13:09;;;;;;;11.13;8.55;;;18.20;61.10;;;;;;5063517;28;20096;-72
2021/04/26 08:15:35;;;;;;;10.27;8.35;;;18.30;59.40;;;;;;5066621;28;20378;-72
2021/04/26 08:18:01;;;;;;;9.80;8.32;;;18.30;58.70;;;;;;5065042;28;20025;-72
2021/04/26 08:20:27;;;;;;;10.82;8.52;;;18.30;59.10;;;;;;5067535;28;20083;-72
2021/04/26 08:22:53;;;;;;;12.75;8.55;;;17.80;57.90;;;;;;5064720;28;20048;-73
2021/04/26 08:25:19;;;;;;;11.30;8.13;;;18.00;60.80;;;;;;5066392;28;20478;-72
2021/04/26 08:27:45;;;;;;;12.32;8.27;;;18.20;59.50;;;;;;5064771;28;20549;-72
2021/04/26 08:30:12;;;;;;;13.50;8.77;;;18.40;58.50;;;;;;5063131;28;20029;-74
2021/04/26 08:32:38;;;;;;;12.57;8.32;;;18.30;56.00;;;;;;5061375;28;20502;-74
2021/04/26 08:35:05;;;;;;;10.93;8.10;;;;;;;;;;5061781;28;20028;-73
2021/04/26 08:37:31;;;;;;;10.18;8.55;;;18.90;57.40;;;;;;5063391;28;20068;-71
2021/04/26 08:39:57;;;;;;;11.45;8.48;;;18.50;56.00;;;;;;5062048;28;20016;-72
2021/04/26 08:42:23;;;;;;;11.55;8.50;;;18.60;58.40;;;;;;5062631;28;20021;-70
2021/04/26 08:44:49;;;;;;;9.23;8.07;;;19.00;59.40;;;;;;5062613;28;20033;-72
2021/04/26 08:47:17;;;;;;;11.43;8.02;;;19.30;57.00;;;;;;5058235;28;20096;-74
2021/04/26 08:49:43;;;;;;;10.55;8.20;;;19.60;56.90;;;;;;5062434;28;20479;-71
2021/04/26 08:52:09;;;;;;;18.52;8.25;;;19.80;56.60;;;;;;5060837;28;20021;-74
2021/04/26 08:54:36;;;;;;;11.57;7.80;;;20.00;55.20;;;;;;5061089;28;20071;-74
2021/04/26 08:57:03;;;;;;;10.45;8.18;;;19.80;54.90;;;;;;5063355;28;20021;-74
2021/04/26 08:59:29;;;;;;;13.50;8.18;;;19.80;56.70;;;;;;5063315;28;20021;-73
2021/04/26 09:02:03;;;;;;;12.27;7.88;;;19.60;55.60;;;;;;5062388;28;20005;-73
2021/04/26 09:04:33;;;;;;;;;;;20.20;55.80;;;;;;5064057;28;20475;-73
2021/04/26 09:07:01;;;;;;;9.95;7.95;;;;;;;;;;5062593;28;19952;-73
2021/04/26 09:09:44;;;;;;;12.80;8.02;;;20.60;53.50;;;;;;5061037;28;20021;-73
2021/04/26 09:12:25;;;;;;;12.37;8.30;;;20.60;54.70;;;;;;5063062;28;20032;-74
2021/04/26 09:15:04;;;;;;;8.98;7.28;;;20.70;53.80;;;;;;5060099;28;20029;-73
2021/04/26 09:17:41;;;;;;;11.20;7.57;;;20.70;50.00;;;;;;5062392;28;20029;-72
2021/04/26 09:20:17;;;;;;;10.38;7.20;;;;;;;;;;5063245;28;20033;-73
2021/04/26 09:23:00;;;;;;;10.25;6.80;;;21.00;51.30;;;;;;5061473;28;20017;-74
2021/04/26 09:25:35;;;;;;;7.97;6.07;;;21.00;50.50;;;;;;5063106;28;20028;-72
2021/04/26 09:28:11;;;;;;;8.88;6.18;;;21.30;48.10;;;;;;5060234;28;20139;-73
2021/04/26 09:30:46;;;;;;;9.82;6.15;;;21.40;48.80;;;;;;5041038;28;20033;-70
2021/04/26 09:33:34;;;;;;;6.95;5.45;;;21.40;48.20;;;;;;5052159;28;20431;-71
2021/04/26 09:36:04;;;;;;;10.13;5.68;;;21.30;45.40;;;;;;5059739;28;20045;-71
2021/04/26 09:38:36;;;;;;;8.35;5.50;;;21.30;46.50;;;;;;5057275;28;20032;-71
2021/04/26 09:41:26;;;;;;;7.35;5.50;;;21.30;47.50;;;;;;5059807;28;20467;-71
2021/04/26 09:44:01;;;;;;;8.15;4.88;;;21.50;48.90;;;;;;5042676;28;20376;-71
2021/04/26 09:46:46;;;;;;;6.70;4.60;;;21.50;45.00;;;;;;5039992;28;20109;-70
2021/04/26 09:49:15;;;;;;;9.82;5.50;;;21.70;46.00;;;;;;5040115;28;20060;-71
2021/04/26 09:51:42;;;;;;;10.50;5.72;;;21.90;46.50;;;;;;5041293;28;20012;-71
2021/04/26 09:54:09;;;;;;;7.35;5.32;;;21.80;44.40;;;;;;5041468;28;20025;-71
2021/04/26 09:56:40;;;;;;;11.43;6.47;;;21.60;45.10;;;;;;5040264;28;20049;-70
2021/04/26 09:59:08;;;;;;;8.40;5.40;;;20.90;49.00;;;;;;5041417;28;20025;-70
2021/04/26 10:01:36;;;;;;;7.13;5.63;;;20.90;45.90;;;;;;5039024;28;20001;-70
2021/04/26 10:04:03;;;;;;;10.40;5.80;;;21.20;45.50;;;;;;5041087;28;20096;-71
2021/04/26 10:06:29;;;;;;;10.93;5.47;;;21.10;47.60;;;;;;5039264;28;20025;-72
2021/04/26 10:09:01;;;;;;;9.52;6.75;;;21.30;45.30;;;;;;5039949;28;19998;-73
2021/04/26 10:11:29;;;;;;;10.23;6.20;;;20.50;46.40;;;;;;5038847;28;20419;-71
2021/04/26 10:14:02;;;;;;;9.48;5.80;;;20.30;47.50;;;;;;5037543;28;20017;-73
2021/04/26 10:17:11;;;;;;;9.40;5.72;;;20.80;49.00;;;;;;5038633;28;20426;-74
2021/04/26 10:19:45;;;;;;;8.75;5.50;;;21.30;46.90;;;;;;5039190;28;20249;-74
2021/04/26 10:22:11;;;;;;;21.60;6.00;;;21.70;45.50;;;;;;5038679;28;20029;-72
2021/04/26 10:24:51;;;;;;;15.43;5.63;;;22.10;47.20;;;;;;5037875;28;20063;-70
2021/04/26 10:27:39;;;;;;;7.55;5.40;;;22.40;45.90;;;;;;5041439;28;20037;-70
2021/04/26 10:30:14;;;;;;;9.15;5.63;;;22.70;44.80;;;;;;5038129;28;20030;-73
2021/04/26 10:33:03;;;;;;;8.90;7.15;;;22.80;44.10;;;;;;5038836;28;20037;-72
2021/04/26 10:35:55;;;;;;;9.60;6.43;;;21.70;42.90;;;;;;5040173;28;20034;-72
2021/04/26 10:38:41;;;;;;;15.00;6.57;;;21.40;44.00;;;;;;5039911;28;20033;-71
2021/04/26 10:41:14;;;;;;;10.93;5.80;;;20.90;45.90;;;;;;5040540;28;20057;-70
2021/04/26 10:43:52;;;;;;;11.27;5.80;;;21.50;47.40;;;;;;5040017;28;20041;-75
2021/04/26 10:46:19;;;;;;;11.23;5.90;;;22.10;46.10;;;;;;5040745;28;20029;-72
2021/04/26 10:49:03;;;;;;;22.95;10.00;;;22.60;46.50;;;;;;5040067;28;20021;-74
2021/04/26 10:51:29;;;;;;;20.65;11.30;;;22.90;45.70;;;;;;5039411;28;20029;-71
2021/04/26 10:53:56;;;;;;;11.63;5.60;;;22.80;44.20;;;;;;5040811;28;20030;-74
2021/04/26 10:56:31;;;;;;;10.52;6.80;;;23.10;44.30;;;;;;5040639;28;20022;-75
2021/04/26 10:59:23;;;;;;;17.15;6.05;;;23.00;44.50;;;;;;5040286;28;20029;-72
2021/04/26 11:01:52;;;;;;;17.70;7.25;;;23.20;44.20;;;;;;5039442;28;20037;-71
2021/04/26 11:04:18;;;;;;;9.52;5.60;;;23.30;44.60;;;;;;5041356;28;20025;-72
2021/04/26 11:07:19;;;;;;;9.15;5.90;;;23.20;44.40;;;;;;5039654;28;20535;-73
2021/04/26 11:09:46;;;;;;;9.73;5.82;;;23.20;42.70;;;;;;5039473;28;20073;-75
2021/04/26 11:12:41;;;;;;;8.75;5.18;;;22.90;44.30;;;;;;5039739;28;20075;-73
2021/04/26 11:15:18;;;;;;;7.32;5.50;;;22.90;41.60;;;;;;5019785;28;20057;-73
2021/04/26 11:17:45;;;;;;;9.48;6.00;;;22.90;42.00;;;;;;5020145;28;20042;-73
2021/04/26 11:20:12;;;;;;;8.10;5.38;;;22.50;42.30;;;;;;5019336;28;20030;-71
2021/04/26 11:22:38;;;;;;;9.13;6.07;;;21.80;45.30;;;;;;5019212;28;20510;-72
2021/04/26 11:25:07;;;;;;;9.52;6.43;;;21.70;45.90;;;;;;5018036;28;20069;-71
2021/04/26 11:27:34;;;;;;;9.25;5.95;;;21.40;44.00;;;;;;5017274;28;20408;-71
2021/04/26 11:30:00;;;;;;;8.90;5.90;;;21.60;46.00;;;;;;5014522;28;20028;-72
2021/04/26 11:32:26;;;;;;;13.30;5.82;;;22.10;45.20;;;;;;5021711;28;20125;-72
2021/04/26 11:35:02;;;;;;;9.05;5.90;;;22.30;45.50;;;;;;5022582;28;20033;-74
2021/04/26 11:37:38;;;;;;;7.95;5.78;;;22.20;44.50;;;;;;5006490;28;20064;-73
2021/04/26 11:40:33;;;;;;;8.18;6.13;;;22.10;44.90;;;;;;5023097;28;20064;-73
2021/04/26 11:43:05;;;;;;;9.70;6.57;;;21.90;45.00;;;;;;4986778;28;20060;-73
2021/04/26 11:45:31;;;;;;;8.38;5.95;;;20.90;45.10;;;;;;5022871;28;20077;-70
2021/04/26 11:47:57;;;;;;;11.20;6.45;;;20.80;47.70;;;;;;5019634;28;20030;-72
2021/04/26 11:50:23;;;;;;;12.13;8.38;;;20.90;47.10;;;;;;5020746;28;20025;-72
2021/04/26 11:52:49;;;;;;;9.38;6.30;;;20.70;46.80;;;;;;5046979;28;20532;-70
2021/04/26 11:55:18;;;;;;;8.70;6.20;;;20.70;48.10;;;;;;5047344;28;20063;-73
2021/04/26 11:57:54;;;;;;;9.68;6.18;;;20.60;47.50;;;;;;5045865;28;20025;-74
2021/04/26 12:00:26;;;;;;;10.93;5.80;;;20.40;46.80;;;;;;5044798;28;20008;-72
2021/04/26 12:03:00;;;;;;;8.32;5.95;;;20.30;46.50;;;;;;5035618;28;20083;-73
2021/04/26 12:05:29;;;;;;;10.85;6.70;;;20.20;47.60;;;;;;5027018;28;20014;-72
2021/04/26 12:07:56;;;;;;;10.30;6.20;;;20.10;46.70;;;;;;5025209;28;20030;-71
2021/04/26 12:10:28;;;;;;;8.55;6.32;;;20.10;47.00;;;;;;5044354;28;20040;-71
2021/04/26 12:13:03;;;;;;;7.70;5.82;;;20.40;47.60;;;;;;5046031;28;20010;-74
2021/04/26 12:15:31;;;;;;;8.95;6.00;;;20.40;45.00;;;;;;5046570;28;20026;-71
2021/04/26 12:17:59;;;;;;;10.05;5.95;;;20.20;46.70;;;;;;5044819;28;20028;-71
2021/04/26 12:20:27;;;;;;;10.80;6.32;;;20.30;46.00;;;;;;5045976;28;20017;-74
2021/04/26 12:22:56;;;;;;;10.43;5.90;;;20.30;46.20;;;;;;5043647;28;20415;-72
2021/04/26 12:25:25;;;;;;;12.35;6.18;;;20.10;47.40;;;;;;5043073;28;20032;-74
2021/04/26 12:28:02;;;;;;;11.35;5.95;;;20.40;46.80;;;;;;5049661;28;20044;-73
2021/04/26 12:30:29;;;;;;;9.98;6.22;;;21.10;46.00;;;;;;5050878;28;20022;-72
2021/04/26 12:32:57;;;;;;;7.57;6.00;;;21.20;45.50;;;;;;5042563;28;20032;-71
2021/04/26 12:35:28;;;;;;;9.93;6.07;;;21.30;45.90;;;;;;5042528;28;20018;-71
2021/04/26 12:37:56;;;;;;;14.25;7.22;;;21.00;45.00;;;;;;5043369;28;20033;-72
2021/04/26 12:40:25;;;;;;;12.95;8.00;;;;;;;;;;5040926;28;20056;-73
2021/04/26 12:42:57;;;;;;;7.65;5.85;;;21.50;44.80;;;;;;5059449;28;20056;-73
2021/04/26 12:45:29;;;;;;;9.10;5.93;;;21.80;45.80;;;;;;5062946;28;20060;-72
2021/04/26 12:48:16;;;;;;;9.73;6.43;;;22.40;43.30;;;;;;5061481;28;20016;-72